METAR Data
IDs: Format: Raw Decoded Include TAF

Data at: 2115 UTC 18 Sep 2018

KDXR 182053Z VRB04KT 10SM BKN080 23/21 A2977 RMK AO2 RAB05E21 SLP077 P0001 60003 T02330206 58000
KDXR 181953Z 02006KT 10SM OVC060 23/21 A2978 RMK AO2 SLP081 T02280206
KDXR 181853Z 01007KT 10SM FEW010 OVC055 23/21 A2978 RMK AO2 RAE19 SLP079 P0002 T02280211
KDXR 181753Z 02006KT 4SM -RA BR FEW010 OVC046 22/21 A2977 RMK AO2 LTG DSNT SW SLP077 P0010 60014 T02170206 10250 20211 50005
KDXR 181710Z 35005KT 4SM -RA BR SCT010 BKN025 OVC065 22/21 A2977 RMK AO2 LTG DSNT S P0007 T02170206
KDXR 181659Z 34004KT 1 3/4SM RA BR SCT010 BKN025 OVC065 22/21 A2977 RMK AO2 LTG DSNT SE AND S P0005 T02170206
KDXR 181653Z 31003KT 6SM -RA BR FEW010 BKN025 OVC036 22/21 A2977 RMK AO2 LTG DSNT SE AND S SLP078 P0002 T02170206
KDXR 181553Z 30004KT 8SM -RA FEW012 OVC022 22/21 A2978 RMK AO2 RAB29 SLP078 P0002 T02170206
KDXR 181453Z 24010KT 10SM FEW014 OVC021 25/23 A2976 RMK AO2 SLP073 T02500233 56010
KDXR 181353Z 23010G19KT 9SM BKN014 OVC018 24/23 A2977 RMK AO2 SLP078 T02390228
KDXR 181317Z 22009G14KT 10SM OVC014 24/23 A2977 RMK AO2 T02390228
KDXR 181253Z 22009KT 10SM SCT015 BKN023 OVC030 24/23 A2977 RMK AO2 SLP077 T02390228
KDXR 181153Z 21008KT 10SM BKN019 BKN045 BKN095 23/23 A2979 RMK AO2 RAE53 SLP083 P0007 60017 70019 T02330228 10233 20222 56012
KDXR 181136Z 21011G17KT 4SM -RA BR SCT013 BKN032 OVC095 23/23 A2979 RMK AO2 P0006 T02330228
KDXR 181129Z 19008KT 2 1/2SM -RA BR BKN011 OVC029 23/23 A2979 RMK AO2 P0005 T02330228
KDXR 181053Z AUTO 19007KT 3SM -RA BR OVC010 23/23 A2979 RMK AO2 LTG DSNT SW RAB12 SLP084 P0007 T02330228
KDXR 181050Z AUTO 19005KT 2 1/2SM RA BR OVC010 23/23 A2979 RMK AO2 LTG DSNT SW RAB12 P0006
KDXR 181006Z AUTO 18008KT 9SM OVC009 23/22 A2980 RMK AO2 CIG 007V014 T02330222
KDXR 180953Z AUTO 18008G18KT 10SM BKN011 OVC015 23/22 A2980 RMK AO2 RAB26E36 SLP087 P0000 T02330222
KDXR 180853Z AUTO 20009G18KT 10SM BKN013 OVC021 23/22 A2983 RMK AO2 RAE22 SLP096 P0000 60003 T02330222 56025
KDXR 180833Z AUTO 20009G15KT 10SM SCT008 OVC015 23/22 A2983 RMK AO2 RAE22 P0000 T02330222
KDXR 180829Z AUTO 19007G15KT 150V220 10SM BKN010 OVC015 23/22 A2983 RMK AO2 RAE22 CIG 007V011 P0000 T02330222
KDXR 180753Z AUTO 19008KT 3SM -RA BR OVC008 23/22 A2983 RMK AO2 RAB16 SLP099 P0003 T02280222
KDXR 180715Z AUTO 18010G16KT 5SM BR OVC008 23/22 A2985 RMK AO2 CIG 007V013 T02280217
KDXR 180653Z AUTO 18007KT 130V200 10SM BKN012 OVC017 22/22 A2987 RMK AO2 RAE01 SLP109 P0000 T02220217
KDXR 180645Z AUTO 17007KT 10SM BKN012 OVC017 22/21 A2987 RMK AO2 RAE01 P0000 T02220211
KDXR 180630Z AUTO VRB06KT 10SM FEW012 BKN024 OVC042 22/21 A2988 RMK AO2 RAE01 P0000 T02170211
KDXR 180609Z AUTO 16007KT 10SM FEW013 BKN042 OVC049 22/21 A2989 RMK AO2 RAE01 P0000 T02170211
KDXR 180553Z AUTO 16003KT 7SM -RA BKN015 BKN030 OVC049 22/21 A2990 RMK AO2 RAE01B43 SLP122 P0000 60001 T02170211 10222 20217 58022
KDXR 180509Z AUTO 14005KT 10SM BKN015 BKN100 22/21 A2993 RMK AO2 RAE01 P0000 T02170211
KDXR 180453Z AUTO 15004KT 10SM -RA FEW022 SCT080 OVC100 22/21 A2993 RMK AO2 RAB18 SLP132 P0000 T02170211 402560144
KDXR 180353Z AUTO 16003KT 10SM FEW021 FEW042 OVC080 22/21 A2996 RMK AO2 SLP141 T02170211 TSNO
KDXR 180253Z AUTO 16006KT 10SM BKN090 OVC110 22/21 A2997 RMK AO2 RAB0159E32 SLP144 P0000 60001 T02170211 58014 TSNO
KDXR 180153Z 17004KT 10SM FEW085 OVC100 22/21 A2999 RMK AO2 RAB19E32 SLP150 P0001 T02220211
KDXR 180053Z 16004KT 10SM FEW090 BKN110 22/22 A3000 RMK AO2 RAB01E46 SLP157 P0000 T02220217
KDXR 172353Z 18004KT 10SM SCT013 SCT100 22/22 A3001 RMK AO2 RAB2254E11 SLP159 P0000 60001 T02220217 10256 20222 58014
KDXR 172253Z 16004KT 10SM BKN110 23/22 A3003 RMK AO2 RAE19B37E46 SLP165 P0000 T02280217
KDXR 172153Z 16005KT 10SM -RA FEW070 FEW100 SCT110 23/22 A3004 RMK AO2 RAB03 SLP168 P0001 T02330217
KDXR 172125Z 17004KT 10SM -RA SCT020 SCT039 BKN110 23/22 A3005 RMK AO2 RAB03 P0000 T02330217
KDXR 172053Z 16005KT 10SM FEW018 BKN024 BKN060 24/21 A3005 RMK AO2 SLP173 T02390211 56018
KDXR 172031Z 14005KT 10SM SCT020 BKN026 BKN032 24/21 A3006 RMK AO2 T02390211
KDXR 171953Z 16005KT 10SM OVC060 24/20 A3007 RMK AO2 SLP178 T02440200
KDXR 171853Z 20009KT 10SM FEW031 BKN050 OVC060 26/20 A3008 RMK AO2 SLP184 T02560200
KDXR 171753Z VRB04KT 10SM SCT026 BKN036 25/20 A3011 RMK AO2 SLP192 T02500200 10256 20167 58018
KDXR 171653Z 22009KT 10SM SCT025 OVC035 25/20 A3013 RMK AO2 SLP197 T02500200
KDXR 171553Z 21007KT 10SM BKN020 OVC027 23/19 A3015 RMK AO2 SLP205 T02330194
KDXR 171500Z 20009KT 10SM BKN022 BKN027 23/19 A3016 RMK AO2 T02330189
KDXR 171453Z 19008KT 10SM SCT019 23/19 A3016 RMK AO2 SLP210 T02330189 58010
KDXR 171353Z VRB03KT 10SM CLR 22/19 A3017 RMK AO2 SLP213 T02170189
KDXR 171253Z 00000KT 9SM CLR 20/18 A3018 RMK AO2 SLP217 T02000183
KDXR 171153Z 00000KT 8SM FEW003 17/17 A3019 RMK AO2 SLP221 T01670167 10172 20144 55003
KDXR 171128Z 00000KT 3SM BR FEW003 16/16 A3019 RMK AO2 T01560156
KDXR 171125Z 00000KT 1 1/4SM BR BKN003 16/16 A3019 RMK AO2 T01560156
KDXR 171053Z 00000KT 1/4SM FG VV003 15/15 A3019 RMK AO2 SLP219 T01500150
KDXR 171049Z 00000KT 3/4SM BR VV003 15/15 A3019 RMK AO2
KDXR 171046Z 00000KT 1 3/4SM BR SCT003 15/15 A3019 RMK AO2 T01500150
KDXR 171023Z AUTO 00000KT 3SM BR CLR 15/14 A3019 RMK AO2 T01500144
KDXR 171016Z AUTO 00000KT 1 3/4SM BR CLR 15/15 A3019 RMK AO2 T01500150
KDXR 170953Z AUTO 00000KT 10SM CLR 16/15 A3020 RMK AO2 SLP222 T01560150